Time;durP1;ratioP1;P1;durP2;ratioP2;P2;SDS_P1;SDS_P2;PMS_P1;PMS_P2;Temp;Humidity;BMP_temperature;BMP_pressure;BME280_temperature;BME280_humidity;BME280_pressure;Samples;Min_cycle;Max_cycle;Signal;HPM_P1;HPM_P2
2024/01/14 00:01:29;;;;;;;9.52;6.43;;;;;;;;;;5036532;28;20516;-54
2024/01/14 00:03:55;;;;;;;8.23;6.30;;;;;;;;;;5040579;28;20067;-55
2024/01/14 00:06:21;;;;;;;8.05;5.97;;;;;;;;;;5022747;28;20029;-55
2024/01/14 00:08:46;;;;;;;7.70;5.75;;;;;;;;;;5030004;28;20052;-54
2024/01/14 00:11:11;;;;;;;7.78;6.13;;;;;;;;;;5029254;28;20041;-55
2024/01/14 00:13:36;;;;;;;7.93;6.00;;;;;;;;;;5038125;28;20044;-55
2024/01/14 00:16:02;;;;;;;9.13;6.57;;;;;;;;;;5032714;28;20120;-57
2024/01/14 00:18:27;;;;;;;7.50;6.00;;;;;;;;;;5021799;28;20037;-55
2024/01/14 00:20:52;;;;;;;7.78;5.80;;;;;;;;;;5042814;28;20095;-54
2024/01/14 00:23:18;;;;;;;8.00;6.40;;;;;;;;;;5039094;28;20041;-54
2024/01/14 00:25:43;;;;;;;8.32;6.28;;;;;;;;;;5042948;28;20519;-55
2024/01/14 00:28:08;;;;;;;7.68;5.82;;;;;;;;;;5042365;28;20119;-53
2024/01/14 00:30:34;;;;;;;8.98;6.25;;;;;;;;;;5049358;28;20485;-54
2024/01/14 00:32:59;;;;;;;8.80;6.35;;;;;;;;;;5042378;28;20513;-53
2024/01/14 00:35:25;;;;;;;8.10;5.88;;;;;;;;;;5038759;28;20055;-53
2024/01/14 00:37:51;;;;;;;8.20;6.15;;;;;;;;;;5042013;28;20060;-54
2024/01/14 00:43:19;;;;;;;7.88;6.32;;;;;;;;;;5022788;23;20455;-57
2024/01/14 00:45:45;;;;;;;7.95;5.90;;;;;;;;;;5029881;23;20705;-54
2024/01/14 00:48:10;;;;;;;8.55;6.25;;;;;;;;;;5016686;28;20042;-54
2024/01/14 00:50:35;;;;;;;9.82;6.60;;;;;;;;;;5012224;28;20061;-54
2024/01/14 00:53:01;;;;;;;7.45;6.00;;;;;;;;;;5013020;28;20112;-55
2024/01/14 00:55:26;;;;;;;8.93;6.38;;;;;;;;;;5020031;28;20080;-55
2024/01/14 00:57:51;;;;;;;8.30;6.20;;;;;;;;;;5003298;28;20114;-54
2024/01/14 01:00:18;;;;;;;8.80;6.22;;;;;;;;;;5010338;28;20534;-55
2024/01/14 01:02:43;;;;;;;7.75;5.70;;;;;;;;;;5061660;23;20293;-57
2024/01/14 01:05:09;;;;;;;8.88;6.65;;;;;;;;;;4995375;28;20497;-54
2024/01/14 01:07:34;;;;;;;8.73;6.60;;;;;;;;;;4999035;28;20084;-55
2024/01/14 01:09:59;;;;;;;9.02;6.47;;;;;;;;;;5018615;28;20084;-54
2024/01/14 01:12:25;;;;;;;8.95;6.50;;;;;;;;;;5006375;28;20044;-56
2024/01/14 01:14:50;;;;;;;8.60;6.57;;;;;;;;;;5011260;28;20037;-55
2024/01/14 01:17:15;;;;;;;9.38;6.50;;;;;;;;;;5010258;28;20116;-55
2024/01/14 01:19:41;;;;;;;7.78;6.25;;;;;;;;;;5024608;28;20037;-55
2024/01/14 01:22:06;;;;;;;8.60;6.65;;;;;;;;;;5031941;28;20045;-54
2024/01/14 01:24:31;;;;;;;10.43;7.20;;;;;;;;;;5035326;22;20064;-53
2024/01/14 01:26:57;;;;;;;9.75;7.28;;;;;;;;;;5009595;28;20049;-53
2024/01/14 01:29:22;;;;;;;8.35;6.53;;;;;;;;;;5003522;28;20819;-54
2024/01/14 01:31:47;;;;;;;9.20;6.90;;;;;;;;;;5009755;28;20758;-52
2024/01/14 01:34:13;;;;;;;9.75;6.97;;;;;;;;;;5018163;28;20033;-55
2024/01/14 01:36:38;;;;;;;9.02;6.65;;;;;;;;;;5010911;28;20089;-54
2024/01/14 01:39:03;;;;;;;9.00;6.72;;;;;;;;;;5021457;28;20045;-53
2024/01/14 01:41:29;;;;;;;8.13;6.30;;;;;;;;;;5019612;28;20120;-55
2024/01/14 01:43:54;;;;;;;9.32;6.93;;;;;;;;;;5019049;28;20101;-55
2024/01/14 01:46:19;;;;;;;8.65;6.38;;;;;;;;;;5011651;28;20197;-56
2024/01/14 01:48:46;;;;;;;9.35;6.88;;;;;;;;;;5000019;28;20045;-56
2024/01/14 01:51:12;;;;;;;8.73;6.82;;;;;;;;;;5005880;28;20029;-53
2024/01/14 01:53:37;;;;;;;10.13;7.07;;;;;;;;;;5015913;28;20045;-54
2024/01/14 01:56:03;;;;;;;8.75;6.63;;;;;;;;;;4988768;28;20037;-54
2024/01/14 01:58:29;;;;;;;9.50;6.88;;;;;;;;;;5006752;28;20041;-54
2024/01/14 02:00:54;;;;;;;10.27;7.38;;;;;;;;;;4990457;28;20053;-53
2024/01/14 02:03:19;;;;;;;8.20;6.38;;;;;;;;;;5023649;28;20033;-54
2024/01/14 02:05:45;;;;;;;10.23;7.15;;;;;;;;;;4996325;28;20530;-56
2024/01/14 02:08:10;;;;;;;9.20;6.75;;;;;;;;;;5004243;28;20068;-54
2024/01/14 02:10:36;;;;;;;9.93;7.10;;;;;;;;;;5020669;28;20070;-56
2024/01/14 02:13:01;;;;;;;8.75;6.25;;;;;;;;;;5019135;28;20062;-56
2024/01/14 02:15:26;;;;;;;8.55;6.97;;;;;;;;;;5014652;28;20042;-56
2024/01/14 02:17:51;;;;;;;9.30;6.70;;;;;;;;;;4996796;28;20043;-55
2024/01/14 02:20:18;;;;;;;9.77;7.30;;;;;;;;;;5027017;28;20080;-54
2024/01/14 02:22:44;;;;;;;10.25;7.10;;;;;;;;;;5016674;28;20057;-54
2024/01/14 02:25:09;;;;;;;9.18;7.25;;;;;;;;;;4993195;28;20426;-53
2024/01/14 02:27:34;;;;;;;9.55;6.63;;;;;;;;;;4980413;28;20050;-56
2024/01/14 02:30:00;;;;;;;8.80;6.88;;;;;;;;;;5028686;28;20044;-53
2024/01/14 02:32:25;;;;;;;8.90;6.72;;;;;;;;;;5027509;28;20546;-53
2024/01/14 02:34:51;;;;;;;8.27;6.63;;;;;;;;;;5022372;28;20370;-57
2024/01/14 02:37:16;;;;;;;8.88;6.70;;;;;;;;;;5017167;28;20107;-54
2024/01/14 02:39:41;;;;;;;8.63;6.90;;;;;;;;;;4983151;28;20070;-54
2024/01/14 02:42:07;;;;;;;9.35;6.55;;;;;;;;;;5021523;28;20109;-55
2024/01/14 02:44:32;;;;;;;9.60;7.18;;;;;;;;;;5017036;28;20040;-54
2024/01/14 02:46:57;;;;;;;8.25;6.53;;;;;;;;;;5019409;28;20050;-55
2024/01/14 02:49:23;;;;;;;8.07;6.35;;;;;;;;;;5016711;28;20046;-54
2024/01/14 02:51:48;;;;;;;10.10;6.75;;;;;;;;;;5032035;28;20040;-53
2024/01/14 02:54:13;;;;;;;8.77;6.40;;;;;;;;;;5023236;28;20237;-54
2024/01/14 02:56:39;;;;;;;9.38;6.63;;;;;;;;;;5005941;28;20756;-55
2024/01/14 02:59:04;;;;;;;9.52;7.10;;;;;;;;;;4988292;28;20051;-56
2024/01/14 03:01:29;;;;;;;9.82;6.97;;;;;;;;;;5023188;28;20049;-56
2024/01/14 03:03:55;;;;;;;8.63;6.82;;;;;;;;;;5019543;28;20030;-56
2024/01/14 03:06:20;;;;;;;9.00;7.00;;;;;;;;;;5017770;28;20033;-55
2024/01/14 03:08:45;;;;;;;9.63;7.47;;;;;;;;;;5018593;28;20046;-55
2024/01/14 03:11:11;;;;;;;8.57;6.93;;;;;;;;;;5006518;28;20443;-55
2024/01/14 03:13:36;;;;;;;9.68;7.15;;;;;;;;;;5021767;28;20069;-55
2024/01/14 03:16:01;;;;;;;9.50;6.95;;;;;;;;;;5020988;28;20147;-56
2024/01/14 03:18:27;;;;;;;9.10;7.00;;;;;;;;;;5019311;28;20944;-55
2024/01/14 03:20:52;;;;;;;9.02;6.95;;;;;;;;;;5016740;28;20037;-56
2024/01/14 03:23:18;;;;;;;8.57;6.72;;;;;;;;;;4985785;28;20073;-54
2024/01/14 03:25:43;;;;;;;9.75;6.80;;;;;;;;;;5003074;28;20432;-54
2024/01/14 03:28:09;;;;;;;8.30;6.63;;;;;;;;;;5017841;28;20089;-53
2024/01/14 03:30:34;;;;;;;9.75;6.90;;;;;;;;;;5021624;28;20100;-55
2024/01/14 03:32:59;;;;;;;9.18;7.10;;;;;;;;;;5006974;28;20034;-54
2024/01/14 03:35:25;;;;;;;9.85;7.22;;;;;;;;;;5022691;28;20042;-54
2024/01/14 03:37:50;;;;;;;8.75;6.95;;;;;;;;;;5010307;28;20030;-53
2024/01/14 03:40:17;;;;;;;8.95;7.15;;;;;;;;;;4985230;28;20549;-54
2024/01/14 03:42:42;;;;;;;9.45;7.15;;;;;;;;;;5005070;28;20163;-55
2024/01/14 03:45:07;;;;;;;9.68;6.93;;;;;;;;;;4999168;28;20490;-55
2024/01/14 03:47:33;;;;;;;9.48;7.32;;;;;;;;;;5012450;28;20053;-54
2024/01/14 03:49:58;;;;;;;10.52;7.65;;;;;;;;;;5017500;28;20049;-54
2024/01/14 03:52:23;;;;;;;10.35;6.97;;;;;;;;;;5006173;28;20485;-52
2024/01/14 03:54:50;;;;;;;10.32;7.10;;;;;;;;;;5009410;28;20080;-53
2024/01/14 03:57:16;;;;;;;9.35;6.88;;;;;;;;;;4967999;28;20514;-55
2024/01/14 03:59:41;;;;;;;9.48;7.13;;;;;;;;;;5019899;28;20052;-55
2024/01/14 04:02:06;;;;;;;9.00;6.75;;;;;;;;;;4992335;28;20042;-54
2024/01/14 04:04:32;;;;;;;9.07;6.88;;;;;;;;;;5017595;28;20030;-54
2024/01/14 04:06:57;;;;;;;10.05;7.10;;;;;;;;;;5013616;28;20489;-53
2024/01/14 04:09:23;;;;;;;8.35;6.40;;;;;;;;;;5007630;28;20041;-55
2024/01/14 04:11:48;;;;;;;9.43;6.63;;;;;;;;;;5016486;28;20509;-54
2024/01/14 04:14:13;;;;;;;10.30;6.68;;;;;;;;;;5009311;28;20040;-56
2024/01/14 04:16:39;;;;;;;10.05;7.35;;;;;;;;;;5044660;23;20052;-57
2024/01/14 04:19:04;;;;;;;9.60;6.80;;;;;;;;;;5055722;28;20036;-62
2024/01/14 04:21:30;;;;;;;9.70;7.18;;;;;;;;;;5043221;28;20543;-54
2024/01/14 04:23:55;;;;;;;8.48;6.38;;;;;;;;;;5059308;28;20037;-56
2024/01/14 04:26:21;;;;;;;9.75;6.68;;;;;;;;;;5048935;28;20036;-55
2024/01/14 04:28:47;;;;;;;9.23;7.10;;;;;;;;;;5058909;28;20136;-55
2024/01/14 04:31:12;;;;;;;10.23;7.22;;;;;;;;;;5053847;28;20035;-54
2024/01/14 04:33:37;;;;;;;8.77;6.72;;;;;;;;;;5050479;28;20358;-56
2024/01/14 04:36:03;;;;;;;9.30;6.80;;;;;;;;;;5052983;22;20173;-52
2024/01/14 04:38:28;;;;;;;8.93;6.90;;;;;;;;;;5039270;28;20574;-52
2024/01/14 04:40:54;;;;;;;9.35;7.07;;;;;;;;;;5044688;28;20044;-55
2024/01/14 04:43:19;;;;;;;8.60;6.55;;;;;;;;;;5042583;28;20043;-53
2024/01/14 04:45:45;;;;;;;9.13;6.78;;;;;;;;;;5044579;28;20215;-54
2024/01/14 04:48:10;;;;;;;9.63;7.07;;;;;;;;;;5051025;28;20214;-54
2024/01/14 04:50:39;;;;;;;8.63;6.43;;;;;;;;;;5041606;28;20047;-53
2024/01/14 04:53:04;;;;;;;8.10;6.28;;;;;;;;;;5046644;28;20041;-56
2024/01/14 04:55:30;;;;;;;10.85;7.25;;;;;;;;;;5053316;22;20040;-53
2024/01/14 04:57:55;;;;;;;10.32;7.25;;;;;;;;;;5039804;28;20029;-56
2024/01/14 05:00:20;;;;;;;8.48;6.60;;;;;;;;;;5039816;28;20063;-56
2024/01/14 05:02:45;;;;;;;10.35;7.53;;;;;;;;;;5039674;28;20056;-54
2024/01/14 05:05:11;;;;;;;9.27;7.25;;;;;;;;;;5041309;28;20373;-56
2024/01/14 05:07:36;;;;;;;9.98;6.75;;;;;;;;;;5039836;28;20524;-54
2024/01/14 05:10:01;;;;;;;9.60;6.63;;;;;;;;;;5043153;28;20132;-55
2024/01/14 05:12:27;;;;;;;9.52;6.82;;;;;;;;;;5039454;28;20060;-54
2024/01/14 05:14:52;;;;;;;8.55;6.65;;;;;;;;;;5041217;28;20459;-53
2024/01/14 05:17:17;;;;;;;9.57;6.57;;;;;;;;;;5045161;28;20547;-53
2024/01/14 05:19:43;;;;;;;9.30;6.45;;;;;;;;;;5019640;28;20507;-53
2024/01/14 05:22:08;;;;;;;9.02;6.95;;;;;;;;;;5018058;28;20808;-54
2024/01/14 05:24:33;;;;;;;9.68;7.28;;;;;;;;;;5036761;28;20060;-53
2024/01/14 05:26:59;;;;;;;10.30;7.32;;;;;;;;;;5032798;28;20132;-55
2024/01/14 05:29:24;;;;;;;10.98;7.80;;;;;;;;;;5039183;28;20375;-54
2024/01/14 05:31:49;;;;;;;10.05;7.00;;;;;;;;;;5004388;28;20026;-54
2024/01/14 05:37:17;;;;;;;9.75;7.05;;;;;;;;;;5012285;28;20035;-55
2024/01/14 05:39:43;;;;;;;8.80;7.20;;;;;;;;;;5030587;22;20392;-56
2024/01/14 05:42:08;;;;;;;9.80;7.18;;;;;;;;;;5056927;22;20076;-55
2024/01/14 05:44:33;;;;;;;9.20;6.82;;;;;;;;;;5042244;28;20029;-54
2024/01/14 05:46:59;;;;;;;9.52;6.82;;;;;;;;;;5039057;28;20064;-54
2024/01/14 05:49:24;;;;;;;10.23;7.13;;;;;;;;;;5043912;28;20037;-55
2024/01/14 05:51:49;;;;;;;9.38;7.35;;;;;;;;;;5032287;28;20041;-55
2024/01/14 05:54:15;;;;;;;10.02;7.07;;;;;;;;;;5021537;28;20479;-55
2024/01/14 05:56:40;;;;;;;9.77;7.05;;;;;;;;;;5125079;22;20559;-54
2024/01/14 05:59:05;;;;;;;9.55;6.95;;;;;;;;;;5030438;23;20048;-84
2024/01/14 06:01:31;;;;;;;8.93;7.03;;;;;;;;;;5052241;28;20551;-82
2024/01/14 06:03:58;;;;;;;9.75;7.15;;;;;;;;;;5016131;28;20021;-83
2024/01/14 06:06:23;;;;;;;9.15;6.95;;;;;;;;;;5034114;28;20037;-81
2024/01/14 06:08:49;;;;;;;9.65;7.30;;;;;;;;;;5051709;28;20041;-82
2024/01/14 06:11:14;;;;;;;10.75;6.82;;;;;;;;;;5034983;28;20037;-82
2024/01/14 06:13:40;;;;;;;8.73;6.82;;;;;;;;;;5029125;28;20583;-70
2024/01/14 06:16:05;;;;;;;9.00;6.72;;;;;;;;;;5016446;28;20053;-69
2024/01/14 06:18:30;;;;;;;9.45;7.00;;;;;;;;;;5041179;28;20037;-69
2024/01/14 06:20:59;;;;;;;10.02;6.85;;;;;;;;;;5026235;28;20102;-69
2024/01/14 06:23:24;;;;;;;9.50;7.53;;;;;;;;;;5044328;28;20064;-69
2024/01/14 06:25:49;;;;;;;9.10;7.05;;;;;;;;;;5039557;28;20065;-70
2024/01/14 06:28:15;;;;;;;9.70;7.05;;;;;;;;;;5044875;28;20072;-69
2024/01/14 06:30:40;;;;;;;9.45;6.72;;;;;;;;;;5041925;28;20048;-69
2024/01/14 06:33:05;;;;;;;9.38;7.00;;;;;;;;;;5055029;28;20045;-69
2024/01/14 06:35:31;;;;;;;10.25;7.30;;;;;;;;;;5029368;28;20036;-69
2024/01/14 06:37:56;;;;;;;8.93;6.53;;;;;;;;;;5026946;28;20037;-70
2024/01/14 06:40:22;;;;;;;8.52;6.68;;;;;;;;;;5028881;28;20637;-68
2024/01/14 06:45:22;;;;;;;9.27;6.95;;;;;;;;;;1883065;22;20753;-54
2024/01/14 06:47:47;;;;;;;10.20;7.70;;;;;;;;;;5005591;28;20040;-56
2024/01/14 06:56:18;;;;;;;10.38;7.25;;;;;;;;;;5057745;22;20048;-70
2024/01/14 06:58:44;;;;;;;9.90;6.90;;;;;;;;;;5047640;28;20055;-70
2024/01/14 07:01:09;;;;;;;8.73;6.38;;;;;;;;;;5046709;28;21002;-70
2024/01/14 07:03:34;;;;;;;8.88;6.50;;;;;;;;;;5048420;28;20044;-70
2024/01/14 07:06:00;;;;;;;9.73;6.53;;;;;;;;;;5062752;22;20072;-54
2024/01/14 07:08:25;;;;;;;9.65;6.60;;;;;;;;;;5038419;28;20045;-56
2024/01/14 07:10:50;;;;;;;8.77;6.88;;;;;;;;;;5045917;28;20411;-53
2024/01/14 07:13:17;;;;;;;9.77;7.00;;;;;;;;;;5041324;28;20135;-56
2024/01/14 07:15:42;;;;;;;8.38;6.72;;;;;;;;;;5046040;28;20511;-55
2024/01/14 07:18:08;;;;;;;8.98;6.60;;;;;;;;;;5046680;28;20139;-55
2024/01/14 07:20:33;;;;;;;8.82;6.32;;;;;;;;;;5038576;28;20041;-55
2024/01/14 07:22:58;;;;;;;8.55;6.20;;;;;;;;;;5053934;28;20067;-55
2024/01/14 07:25:24;;;;;;;9.15;6.95;;;;;;;;;;5072102;22;20033;-54
2024/01/14 07:27:49;;;;;;;8.27;6.20;;;;;;;;;;5005919;28;20436;-55
2024/01/14 07:30:18;;;;;;;8.70;6.45;;;;;;;;;;5000551;28;20034;-58
2024/01/14 07:32:43;;;;;;;9.35;6.93;;;;;;;;;;5006960;28;20421;-58
2024/01/14 07:35:08;;;;;;;8.75;6.50;;;;;;;;;;5004704;28;20757;-54
2024/01/14 07:37:34;;;;;;;9.45;6.82;;;;;;;;;;5000594;28;21146;-56
2024/01/14 07:40:00;;;;;;;8.02;6.50;;;;;;;;;;4999632;28;20493;-57
2024/01/14 07:42:25;;;;;;;8.30;6.22;;;;;;;;;;5003383;28;20655;-55
2024/01/14 07:44:51;;;;;;;9.35;6.63;;;;;;;;;;4997355;28;20102;-55
2024/01/14 07:47:17;;;;;;;7.93;5.95;;;;;;;;;;5004141;28;20097;-54
2024/01/14 07:49:48;;;;;;;8.10;6.10;;;;;;;;;;5002339;28;20018;-57
2024/01/14 07:52:13;;;;;;;8.23;6.25;;;;;;;;;;4983830;28;20030;-56
2024/01/14 07:54:39;;;;;;;8.75;6.20;;;;;;;;;;4999161;28;20044;-54
2024/01/14 07:57:04;;;;;;;8.77;6.40;;;;;;;;;;4993639;28;20190;-54
2024/01/14 07:59:29;;;;;;;8.77;6.38;;;;;;;;;;5005245;28;20082;-53
2024/01/14 08:01:55;;;;;;;9.50;6.45;;;;;;;;;;4999744;28;20828;-53
2024/01/14 08:04:20;;;;;;;8.45;6.57;;;;;;;;;;5004507;28;20488;-53
2024/01/14 08:06:45;;;;;;;10.48;6.55;;;;;;;;;;5013504;28;20022;-53
2024/01/14 08:09:11;;;;;;;7.90;6.07;;;;;;;;;;4999295;28;21664;-53
2024/01/14 08:11:36;;;;;;;7.95;5.78;;;;;;;;;;4998616;28;20045;-54
2024/01/14 08:14:02;;;;;;;7.57;6.05;;;;;;;;;;4991526;28;20030;-55
2024/01/14 08:16:27;;;;;;;8.95;5.93;;;;;;;;;;4998813;28;20362;-55
2024/01/14 08:18:52;;;;;;;9.38;6.45;;;;;;;;;;4996959;28;20133;-55
2024/01/14 08:21:18;;;;;;;8.68;6.75;;;;;;;;;;4980441;28;21963;-55
2024/01/14 08:23:43;;;;;;;9.63;6.18;;;;;;;;;;4998703;28;20041;-53
2024/01/14 08:26:09;;;;;;;10.13;6.65;;;;;;;;;;4998209;28;20440;-53
2024/01/14 08:28:34;;;;;;;9.23;6.47;;;;;;;;;;5010330;28;20050;-55
2024/01/14 08:31:00;;;;;;;7.55;6.10;;;;;;;;;;4997572;28;20036;-52
2024/01/14 08:33:25;;;;;;;8.30;6.10;;;;;;;;;;5014047;28;20036;-53
2024/01/14 08:35:51;;;;;;;8.40;6.75;;;;;;;;;;5005539;28;20052;-53
2024/01/14 08:38:16;;;;;;;7.72;6.03;;;;;;;;;;4991133;28;21089;-53
2024/01/14 08:40:41;;;;;;;8.40;6.70;;;;;;;;;;4994151;28;20625;-55
2024/01/14 08:43:07;;;;;;;8.68;6.72;;;;;;;;;;4995962;28;20042;-54
2024/01/14 08:45:32;;;;;;;8.93;6.78;;;;;;;;;;4997660;28;20701;-53
2024/01/14 08:47:57;;;;;;;8.43;6.47;;;;;;;;;;4996390;28;20058;-53
2024/01/14 08:50:23;;;;;;;8.20;6.38;;;;;;;;;;4996417;28;20042;-55
2024/01/14 08:52:48;;;;;;;7.95;6.20;;;;;;;;;;4996048;28;20048;-52
2024/01/14 08:55:13;;;;;;;9.35;6.63;;;;;;;;;;4996415;28;20030;-55
2024/01/14 08:57:39;;;;;;;9.48;6.65;;;;;;;;;;5011835;28;20030;-54
2024/01/14 09:00:05;;;;;;;9.55;7.00;;;;;;;;;;5012615;28;20053;-53
2024/01/14 09:02:31;;;;;;;9.32;6.32;;;;;;;;;;4996686;28;20042;-53
2024/01/14 09:04:56;;;;;;;10.27;6.82;;;;;;;;;;4996865;28;20370;-52
2024/01/14 09:07:22;;;;;;;10.25;6.55;;;;;;;;;;4997135;28;20057;-60
2024/01/14 09:09:48;;;;;;;9.77;6.70;;;;;;;;;;4996247;28;20030;-52
2024/01/14 09:12:14;;;;;;;10.10;6.93;;;;;;;;;;4997364;28;20044;-54
2024/01/14 09:14:39;;;;;;;10.05;6.97;;;;;;;;;;4994798;28;20037;-53
2024/01/14 09:17:05;;;;;;;9.93;6.93;;;;;;;;;;4999626;28;20030;-53
2024/01/14 09:19:30;;;;;;;11.73;7.10;;;;;;;;;;4975770;28;20040;-53
2024/01/14 09:21:56;;;;;;;9.82;7.00;;;;;;;;;;4998496;28;20038;-54
2024/01/14 09:24:21;;;;;;;9.60;6.88;;;;;;;;;;4996230;28;20032;-54
2024/01/14 09:26:47;;;;;;;9.52;6.88;;;;;;;;;;4997880;28;20042;-54
2024/01/14 09:29:12;;;;;;;8.88;6.93;;;;;;;;;;5010153;28;20040;-55
2024/01/14 09:31:38;;;;;;;9.30;6.63;;;;;;;;;;4995416;28;20042;-53
2024/01/14 09:34:03;;;;;;;9.82;6.65;;;;;;;;;;4997615;28;20060;-53
2024/01/14 09:36:30;;;;;;;9.25;6.80;;;;;;;;;;4998671;28;20734;-53
2024/01/14 09:38:56;;;;;;;9.82;7.15;;;;;;;;;;4995359;28;20018;-53
2024/01/14 09:41:21;;;;;;;10.35;7.32;;;;;;;;;;4998819;28;20064;-53
2024/01/14 09:43:49;;;;;;;10.40;7.25;;;;;;;;;;5003372;28;20100;-53
2024/01/14 09:46:15;;;;;;;10.02;7.13;;;;;;;;;;4999766;28;20042;-52
2024/01/14 09:48:40;;;;;;;9.82;7.60;;;;;;;;;;5002139;28;20048;-53
2024/01/14 09:51:06;;;;;;;10.55;7.00;;;;;;;;;;5003494;28;20060;-51
2024/01/14 09:53:31;;;;;;;9.80;6.93;;;;;;;;;;5016092;28;20520;-52
2024/01/14 09:55:57;;;;;;;10.35;7.70;;;;;;;;;;5001104;28;20050;-53
2024/01/14 09:58:22;;;;;;;10.85;7.75;;;;;;;;;;5001086;28;20045;-52
2024/01/14 10:00:47;;;;;;;11.35;7.68;;;;;;;;;;4992436;28;20034;-54
2024/01/14 10:03:13;;;;;;;9.85;6.88;;;;;;;;;;5003523;28;20041;-54
2024/01/14 10:05:38;;;;;;;11.10;7.50;;;;;;;;;;5002039;28;20033;-53
2024/01/14 10:08:04;;;;;;;10.45;7.45;;;;;;;;;;5001754;28;20812;-53
2024/01/14 10:10:31;;;;;;;8.73;7.07;;;;;;;;;;5001668;28;20038;-54
2024/01/14 10:12:56;;;;;;;9.30;7.18;;;;;;;;;;5000535;28;20120;-52
2024/01/14 10:15:21;;;;;;;9.80;6.72;;;;;;;;;;5002272;28;20121;-54
2024/01/14 10:17:47;;;;;;;8.55;7.03;;;;;;;;;;4997896;28;20098;-53
2024/01/14 10:20:12;;;;;;;10.02;6.85;;;;;;;;;;4995144;28;20072;-54
2024/01/14 10:22:41;;;;;;;10.25;7.28;;;;;;;;;;4998775;28;20080;-53
2024/01/14 10:25:06;;;;;;;9.88;7.30;;;;;;;;;;5006336;28;20098;-52
2024/01/14 10:27:31;;;;;;;10.38;7.50;;;;;;;;;;5006989;28;20516;-52
2024/01/14 10:29:56;;;;;;;8.65;6.75;;;;;;;;;;4997962;28;20034;-52
2024/01/14 10:32:22;;;;;;;8.85;7.03;;;;;;;;;;5006590;28;20065;-53
2024/01/14 10:34:47;;;;;;;9.60;7.50;;;;;;;;;;5006109;28;20064;-53
2024/01/14 10:37:12;;;;;;;11.00;8.25;;;;;;;;;;4998520;28;20064;-54
2024/01/14 10:39:38;;;;;;;9.45;7.43;;;;;;;;;;5004266;28;20046;-54
2024/01/14 10:42:03;;;;;;;10.10;7.28;;;;;;;;;;5005062;28;20085;-53
2024/01/14 10:44:29;;;;;;;10.80;8.00;;;;;;;;;;4992036;28;20503;-51
2024/01/14 10:46:56;;;;;;;10.73;7.78;;;;;;;;;;5021031;28;20096;-52
2024/01/14 10:49:25;;;;;;;10.60;7.60;;;;;;;;;;5006431;28;20049;-53
2024/01/14 10:51:53;;;;;;;10.02;7.75;;;;;;;;;;5002882;28;20431;-53
2024/01/14 10:54:54;;;;;;;9.80;7.57;;;;;;;;;;5021800;28;20053;-52
2024/01/14 10:57:26;;;;;;;10.15;7.57;;;;;;;;;;4975370;28;20681;-52
2024/01/14 10:59:56;;;;;;;26.48;9.45;;;;;;;;;;5000034;28;20436;-52
2024/01/14 11:02:21;;;;;;;14.05;8.25;;;;;;;;;;4999004;28;20043;-54
2024/01/14 11:04:47;;;;;;;14.48;8.45;;;;;;;;;;5008115;28;20026;-54
2024/01/14 11:07:13;;;;;;;12.45;8.90;;;;;;;;;;4989775;28;20081;-52
2024/01/14 11:09:39;;;;;;;13.35;9.05;;;;;;;;;;4998246;28;20499;-53
2024/01/14 11:12:06;;;;;;;14.30;8.30;;;;;;;;;;5007736;28;20065;-54
2024/01/14 11:14:34;;;;;;;15.63;8.85;;;;;;;;;;5015879;28;20041;-54
2024/01/14 11:17:08;;;;;;;13.90;8.68;;;;;;;;;;5003766;28;20037;-53
2024/01/14 11:19:34;;;;;;;14.65;9.13;;;;;;;;;;4995834;28;20037;-53
2024/01/14 11:22:03;;;;;;;12.85;8.32;;;;;;;;;;4977590;28;20460;-53
2024/01/14 11:24:28;;;;;;;14.52;9.70;;;;;;;;;;4995700;28;20038;-53
2024/01/14 11:26:54;;;;;;;14.63;9.93;;;;;;;;;;4990927;28;20035;-53
2024/01/14 11:29:31;;;;;;;16.15;9.70;;;;;;;;;;5001540;28;20140;-55
2024/01/14 11:32:03;;;;;;;17.33;10.57;;;;;;;;;;5001103;28;20042;-55
2024/01/14 11:34:46;;;;;;;18.63;10.93;;;;;;;;;;5005669;28;20046;-54
2024/01/14 11:37:30;;;;;;;17.38;11.00;;;;;;;;;;4987689;28;20041;-54
2024/01/14 11:40:16;;;;;;;14.68;10.57;;;;;;;;;;4981703;28;20418;-53
2024/01/14 11:42:51;;;;;;;17.52;12.20;;;;;;;;;;4993125;28;20082;-56
2024/01/14 11:45:22;;;;;;;18.10;11.85;;;;;;;;;;4996573;28;20026;-54
2024/01/14 11:47:47;;;;;;;16.90;11.68;;;;;;;;;;4996692;28;20048;-54
2024/01/14 11:50:14;;;;;;;19.77;12.90;;;;;;;;;;4995702;28;20835;-53
2024/01/14 11:52:46;;;;;;;17.88;11.18;;;;;;;;;;5002885;28;20088;-52
2024/01/14 11:55:14;;;;;;;16.20;11.15;;;;;;;;;;5006291;28;20111;-52
2024/01/14 11:57:39;;;;;;;15.70;10.95;;;;;;;;;;4992982;28;20065;-53
2024/01/14 12:00:05;;;;;;;17.83;11.82;;;;;;;;;;5002201;28;20501;-53
2024/01/14 12:02:30;;;;;;;16.63;11.75;;;;;;;;;;4998034;28;20030;-54
2024/01/14 12:04:56;;;;;;;16.48;11.13;;;;;;;;;;4993780;28;20088;-55
2024/01/14 12:07:21;;;;;;;15.15;11.07;;;;;;;;;;4992975;28;20104;-53
2024/01/14 12:09:53;;;;;;;16.50;10.90;;;;;;;;;;5006851;28;20507;-53
2024/01/14 12:12:18;;;;;;;14.93;10.82;;;;;;;;;;4987007;28;20556;-52
2024/01/14 12:20:22;;;;;;;15.70;9.77;;;;;;;;;;4696524;23;20054;-53
2024/01/14 12:22:47;;;;;;;15.25;10.50;;;;;;;;;;5040661;23;20321;-55
2024/01/14 12:25:12;;;;;;;15.50;11.10;;;;;;;;;;5039116;28;20065;-53
2024/01/14 12:27:38;;;;;;;18.08;10.60;;;;;;;;;;5031433;28;20048;-54
2024/01/14 12:30:04;;;;;;;14.93;10.80;;;;;;;;;;5042619;28;20153;-54
2024/01/14 12:32:32;;;;;;;16.17;10.73;;;;;;;;;;5036353;28;20040;-56
2024/01/14 12:34:57;;;;;;;17.00;11.32;;;;;;;;;;5029443;28;20523;-55
2024/01/14 12:37:23;;;;;;;13.75;10.02;;;;;;;;;;5160691;22;20056;-81
2024/01/14 12:39:48;;;;;;;16.38;11.10;;;;;;;;;;5024056;28;20044;-80
2024/01/14 12:42:13;;;;;;;17.13;11.02;;;;;;;;;;5033124;28;20064;-84
2024/01/14 12:44:46;;;;;;;17.63;10.93;;;;;;;;;;5014954;28;20093;-82
2024/01/14 12:47:12;;;;;;;15.43;10.02;;;;;;;;;;5047185;28;20116;-84
2024/01/14 12:49:39;;;;;;;15.05;11.23;;;;;;;;;;5063673;28;20070;-82
2024/01/14 12:52:05;;;;;;;14.20;10.32;;;;;;;;;;5050989;28;20037;-77
2024/01/14 12:54:30;;;;;;;15.48;10.73;;;;;;;;;;5029598;28;20363;-76
2024/01/14 12:57:05;;;;;;;15.38;10.60;;;;;;;;;;5057630;28;20583;-72
2024/01/14 12:59:31;;;;;;;15.02;9.95;;;;;;;;;;5038536;28;20033;-72
2024/01/14 13:01:56;;;;;;;14.35;11.02;;;;;;;;;;5017777;28;21429;-71
2024/01/14 13:04:26;;;;;;;15.10;10.57;;;;;;;;;;5018028;28;20033;-73
2024/01/14 13:06:51;;;;;;;16.40;10.57;;;;;;;;;;5012943;28;20036;-71
2024/01/14 13:09:16;;;;;;;15.93;10.63;;;;;;;;;;4993611;28;20052;-71
2024/01/14 13:11:42;;;;;;;15.90;10.52;;;;;;;;;;5021808;28;20041;-71
2024/01/14 13:14:07;;;;;;;14.27;9.40;;;;;;;;;;5030473;28;20129;-71
2024/01/14 13:16:33;;;;;;;15.00;10.35;;;;;;;;;;5013123;28;20033;-72
2024/01/14 13:19:01;;;;;;;14.43;9.80;;;;;;;;;;5035719;28;20033;-72
2024/01/14 13:21:27;;;;;;;14.95;10.30;;;;;;;;;;5033814;28;20181;-71
2024/01/14 13:23:52;;;;;;;15.00;9.98;;;;;;;;;;5032929;28;20807;-71
2024/01/14 13:26:17;;;;;;;15.88;10.25;;;;;;;;;;5035518;28;20107;-71
2024/01/14 13:28:43;;;;;;;18.33;10.05;;;;;;;;;;5036196;28;20803;-71
2024/01/14 13:31:09;;;;;;;13.38;10.20;;;;;;;;;;5025090;28;20028;-72
2024/01/14 13:33:34;;;;;;;14.90;10.27;;;;;;;;;;5011178;28;20048;-72
2024/01/14 13:35:59;;;;;;;17.20;10.30;;;;;;;;;;5038278;28;20025;-71
2024/01/14 13:38:26;;;;;;;16.45;10.15;;;;;;;;;;5035149;28;20041;-72
2024/01/14 13:40:51;;;;;;;13.02;9.45;;;;;;;;;;5023376;28;20048;-74
2024/01/14 13:43:16;;;;;;;15.30;10.13;;;;;;;;;;5025418;28;20041;-73
2024/01/14 13:45:42;;;;;;;14.13;10.13;;;;;;;;;;5010014;28;20041;-73
2024/01/14 13:48:07;;;;;;;15.88;9.95;;;;;;;;;;5025369;28;21382;-72
2024/01/14 13:50:32;;;;;;;17.08;10.20;;;;;;;;;;5033534;28;20095;-71
2024/01/14 13:52:58;;;;;;;15.95;10.13;;;;;;;;;;5026991;28;20055;-73
2024/01/14 13:55:24;;;;;;;15.93;10.15;;;;;;;;;;5029726;28;20501;-73
2024/01/14 13:57:49;;;;;;;13.93;9.82;;;;;;;;;;5024541;28;20064;-74
2024/01/14 14:00:15;;;;;;;15.15;10.23;;;;;;;;;;5028577;28;20054;-71
2024/01/14 14:02:40;;;;;;;13.82;9.63;;;;;;;;;;5033394;28;20167;-73
2024/01/14 14:05:06;;;;;;;14.48;9.85;;;;;;;;;;5001263;28;20045;-72
2024/01/14 14:07:31;;;;;;;13.35;9.73;;;;;;;;;;5010691;28;20678;-72
2024/01/14 14:09:57;;;;;;;14.48;10.15;;;;;;;;;;5031951;28;20048;-74
2024/01/14 14:12:22;;;;;;;14.60;9.95;;;;;;;;;;5034374;28;20037;-73
2024/01/14 14:14:47;;;;;;;13.40;9.50;;;;;;;;;;5010112;28;20045;-73
2024/01/14 14:17:13;;;;;;;15.05;10.43;;;;;;;;;;5027417;28;20025;-74
2024/01/14 14:19:38;;;;;;;13.98;10.07;;;;;;;;;;5011047;28;20047;-72
2024/01/14 14:22:04;;;;;;;14.82;10.30;;;;;;;;;;5032366;28;20487;-72
2024/01/14 14:24:33;;;;;;;13.52;9.68;;;;;;;;;;5044740;28;20028;-73
2024/01/14 14:26:59;;;;;;;15.70;9.65;;;;;;;;;;5033285;28;20025;-72
2024/01/14 14:29:24;;;;;;;12.85;9.60;;;;;;;;;;5026324;28;20410;-73
2024/01/14 14:31:49;;;;;;;14.27;9.82;;;;;;;;;;5028781;28;20032;-73
2024/01/14 14:34:15;;;;;;;14.07;9.77;;;;;;;;;;5005204;28;21313;-74
2024/01/14 14:36:40;;;;;;;14.30;9.43;;;;;;;;;;5019821;28;20017;-73
2024/01/14 14:39:06;;;;;;;12.15;9.20;;;;;;;;;;5034766;28;20083;-72
2024/01/14 14:41:31;;;;;;;13.05;9.23;;;;;;;;;;5041055;28;20021;-73
2024/01/14 14:43:56;;;;;;;13.02;9.40;;;;;;;;;;5041566;28;21643;-73
2024/01/14 14:46:23;;;;;;;14.75;9.85;;;;;;;;;;5038122;28;20029;-72
2024/01/14 14:48:48;;;;;;;13.32;9.20;;;;;;;;;;5045055;28;20032;-73